createdAt,value
2023-01-20T06:18:11.208Z,4.42
2023-01-20T06:28:11.183Z,6.37
2023-01-20T06:38:11.191Z,2.54
2023-01-20T06:48:11.160Z,1.72
2023-01-20T06:58:11.375Z,0.19
2023-01-20T07:08:11.355Z,3.85
2023-01-20T07:18:11.220Z,5.72
2023-01-20T07:28:11.481Z,8.46
2023-01-20T07:38:11.243Z,8.03
2023-01-20T07:48:11.194Z,8.56
2023-01-20T07:58:11.335Z,7.50
2023-01-20T08:08:11.327Z,7.25
2023-01-20T08:18:11.256Z,7.24
2023-01-20T08:28:11.430Z,6.97
2023-01-20T08:38:11.430Z,7.12
2023-01-20T08:48:11.677Z,6.19
2023-01-20T08:58:11.781Z,7.99
2023-01-20T09:08:11.695Z,5.30
2023-01-20T09:18:11.771Z,4.52
2023-01-20T09:28:11.873Z,7.49
2023-01-20T09:38:11.723Z,6.64
2023-01-20T09:48:11.727Z,7.67
2023-01-20T09:58:11.902Z,9.68
2023-01-20T10:08:11.766Z,8.44
2023-01-20T10:18:11.761Z,7.72
2023-01-20T10:28:11.792Z,9.37
2023-01-20T10:38:11.875Z,5.33
2023-01-20T10:48:11.685Z,7.04
2023-01-20T10:58:11.702Z,8.70
2023-01-20T11:08:11.953Z,6.73
2023-01-20T11:18:11.887Z,6.96
2023-01-20T11:28:11.813Z,6.06
2023-01-20T11:38:11.987Z,4.85
2023-01-20T11:48:11.870Z,4.97
2023-01-20T11:58:11.823Z,5.28
2023-01-20T12:08:11.874Z,3.25
2023-01-20T12:18:11.746Z,4.17
2023-01-20T12:28:11.702Z,5.71
2023-01-20T12:38:11.751Z,4.62
2023-01-20T12:48:11.705Z,7.01
2023-01-20T12:58:11.719Z,9.68
2023-01-20T13:08:12.722Z,7.38
2023-01-20T13:18:11.703Z,3.89
2023-01-20T13:28:11.792Z,4.42
2023-01-20T13:38:11.739Z,4.06
2023-01-20T13:48:11.777Z,4.93
2023-01-20T13:58:11.830Z,5.03
2023-01-20T14:08:11.726Z,2.83
2023-01-20T14:18:11.911Z,3.85
2023-01-20T14:28:11.967Z,2.51
2023-01-20T14:38:11.932Z,2.31
2023-01-20T14:48:19.131Z,1.00
2023-01-20T14:58:12.012Z,0.03
2023-01-20T15:08:12.069Z,0.98
2023-01-20T15:18:12.052Z,0.81
2023-01-20T15:28:11.852Z,2.39
2023-01-20T15:38:11.957Z,0.51
2023-01-20T15:48:11.872Z,2.76
2023-01-20T15:58:11.884Z,0.04
2023-01-20T16:08:11.905Z,0.00
2023-01-20T16:18:12.103Z,0.00
2023-01-20T16:28:12.170Z,0.00
2023-01-20T16:38:12.128Z,0.00
2023-01-20T16:48:12.061Z,1.79
2023-01-20T16:58:12.199Z,0.63
2023-01-20T17:08:12.132Z,0.72
2023-01-20T17:18:12.059Z,2.89
2023-01-20T17:28:12.004Z,0.05
2023-01-20T17:38:12.994Z,0.00
2023-01-20T17:48:12.058Z,1.46
2023-01-20T17:58:12.108Z,0.12
2023-01-20T18:08:12.046Z,0.44
2023-01-20T18:18:12.032Z,4.02
2023-01-20T18:28:12.045Z,0.83
2023-01-20T18:38:12.058Z,0.01
2023-01-20T18:48:12.051Z,0.00
2023-01-20T18:58:12.037Z,0.00
2023-01-20T19:08:12.112Z,0.00
2023-01-20T19:18:12.094Z,0.00
